createdAt,value
2022-08-16T00:02:30.747Z,19.90
2022-08-16T00:04:59.713Z,19.90
2022-08-16T00:07:29.331Z,19.90
2022-08-16T00:09:57.696Z,19.90
2022-08-16T00:12:26.829Z,19.90
2022-08-16T00:14:56.725Z,19.80
2022-08-16T00:17:25.388Z,19.70
2022-08-16T00:19:55.089Z,19.70
2022-08-16T00:22:27.746Z,19.70
2022-08-16T00:24:55.167Z,19.70
2022-08-16T00:27:23.324Z,19.70
2022-08-16T00:30:00.629Z,19.70
2022-08-16T00:32:32.927Z,19.70
2022-08-16T00:35:01.587Z,19.60
2022-08-16T00:37:58.285Z,19.70
2022-08-16T00:40:34.909Z,19.70
2022-08-16T00:43:11.940Z,19.70
2022-08-16T00:46:32.902Z,19.70
2022-08-16T00:49:01.203Z,19.60
2022-08-16T00:51:29.761Z,19.60
2022-08-16T00:53:56.813Z,19.60
2022-08-16T00:56:56.554Z,19.50
2022-08-16T00:59:16.357Z,19.50
2022-08-16T01:01:44.300Z,19.50
2022-08-16T01:04:30.341Z,19.40
2022-08-16T01:07:02.152Z,19.40
2022-08-16T01:09:37.348Z,19.40
2022-08-16T01:12:08.562Z,19.40
2022-08-16T01:14:43.510Z,19.40
2022-08-16T01:17:12.442Z,19.40
2022-08-16T01:19:43.985Z,19.40
2022-08-16T01:22:46.965Z,19.40
2022-08-16T01:25:12.979Z,19.40
2022-08-16T01:27:47.081Z,19.50
2022-08-16T01:30:19.691Z,19.40
2022-08-16T01:32:56.413Z,19.50
2022-08-16T01:35:47.454Z,19.50
2022-08-16T01:38:48.888Z,19.50
2022-08-16T01:41:23.723Z,19.50
2022-08-16T01:43:53.957Z,19.50
2022-08-16T01:46:39.466Z,19.50
2022-08-16T01:49:13.165Z,19.40
2022-08-16T01:51:43.987Z,19.40
2022-08-16T01:54:13.140Z,19.40
2022-08-16T01:56:40.638Z,19.40
2022-08-16T01:59:15.841Z,19.30
2022-08-16T02:01:52.542Z,19.30
2022-08-16T02:04:44.564Z,19.30
2022-08-16T02:07:12.045Z,19.30
2022-08-16T02:09:40.586Z,19.30
2022-08-16T02:12:39.776Z,19.30
2022-08-16T02:14:56.791Z,19.30
2022-08-16T02:17:26.182Z,19.30
2022-08-16T02:19:59.305Z,19.30
2022-08-16T02:22:34.888Z,19.20
2022-08-16T02:25:15.918Z,19.10
2022-08-16T02:27:45.094Z,19.10
2022-08-16T02:30:35.706Z,19.00
2022-08-16T02:33:05.354Z,19.10
2022-08-16T02:35:33.105Z,19.10
2022-08-16T02:38:04.806Z,19.10
2022-08-16T02:40:35.879Z,19.20
2022-08-16T02:43:02.720Z,19.10
2022-08-16T02:45:29.655Z,19.20
2022-08-16T02:48:01.148Z,19.20
2022-08-16T02:51:05.957Z,19.20
2022-08-16T02:53:31.026Z,19.30
2022-08-16T02:55:58.050Z,19.30
2022-08-16T02:58:27.974Z,19.20
2022-08-16T03:00:57.247Z,19.20
2022-08-16T03:03:25.758Z,19.20
2022-08-16T03:05:53.365Z,19.20
2022-08-16T03:08:50.168Z,19.20
2022-08-16T03:11:16.829Z,19.20
2022-08-16T03:13:53.138Z,19.20
2022-08-16T03:16:38.060Z,19.20
2022-08-16T03:19:06.465Z,19.20
2022-08-16T03:21:37.823Z,19.20
2022-08-16T03:24:28.638Z,19.10
2022-08-16T03:26:58.947Z,19.10
2022-08-16T03:29:31.409Z,19.20
2022-08-16T03:31:59.749Z,19.20
2022-08-16T03:34:29.040Z,19.20
2022-08-16T03:36:57.646Z,19.20
2022-08-16T03:39:24.708Z,19.20
2022-08-16T03:41:59.250Z,19.20
2022-08-16T03:44:40.720Z,19.20
2022-08-16T03:47:11.895Z,19.20
2022-08-16T03:49:38.639Z,19.20
2022-08-16T03:52:05.697Z,19.20
2022-08-16T03:54:32.664Z,19.20
2022-08-16T03:57:02.989Z,19.20
2022-08-16T03:59:32.523Z,19.20
2022-08-16T04:02:01.011Z,19.20
2022-08-16T04:04:33.414Z,19.20
2022-08-16T04:07:02.927Z,19.20
2022-08-16T04:09:35.513Z,19.20
2022-08-16T04:12:04.762Z,19.20
2022-08-16T04:14:46.628Z,19.20
2022-08-16T04:17:16.087Z,19.20
2022-08-16T04:19:45.355Z,19.20
2022-08-16T04:22:12.491Z,19.30
2022-08-16T04:24:39.520Z,19.30
2022-08-16T04:27:09.079Z,19.30
2022-08-16T04:29:44.059Z,19.30
2022-08-16T04:32:13.744Z,19.30
2022-08-16T04:34:40.677Z,19.30
2022-08-16T04:37:07.784Z,19.30
2022-08-16T04:39:45.880Z,19.40
2022-08-16T04:42:17.423Z,19.40
2022-08-16T04:44:53.571Z,19.40
2022-08-16T04:47:24.626Z,19.40
2022-08-16T04:49:52.468Z,19.40
2022-08-16T04:52:34.632Z,19.40
2022-08-16T04:55:18.227Z,19.50
2022-08-16T04:57:46.235Z,19.50
2022-08-16T05:00:31.811Z,19.50
2022-08-16T05:03:07.360Z,19.50
2022-08-16T05:05:44.940Z,19.60
2022-08-16T05:08:28.970Z,19.60
2022-08-16T05:11:01.423Z,19.60
2022-08-16T05:13:40.915Z,19.60
2022-08-16T05:16:19.798Z,19.60
2022-08-16T05:18:48.658Z,19.60
2022-08-16T05:21:15.425Z,19.60
2022-08-16T05:23:45.455Z,19.60
2022-08-16T05:26:20.471Z,19.70
2022-08-16T05:28:55.735Z,19.70
2022-08-16T05:31:29.732Z,19.70
2022-08-16T05:33:58.809Z,19.70
2022-08-16T05:36:34.131Z,19.70
2022-08-16T05:39:06.553Z,19.70
2022-08-16T05:41:45.448Z,19.70
2022-08-16T05:44:22.873Z,19.60
2022-08-16T05:46:56.276Z,19.70
2022-08-16T05:49:24.014Z,19.80
2022-08-16T05:51:50.722Z,19.80
2022-08-16T05:54:25.107Z,19.80
2022-08-16T05:56:52.935Z,19.90
2022-08-16T05:59:19.703Z,19.90
2022-08-16T06:01:49.466Z,20.00
2022-08-16T06:04:35.899Z,20.00
2022-08-16T06:07:07.183Z,20.10
2022-08-16T06:09:42.571Z,20.10
2022-08-16T06:12:12.603Z,20.10
2022-08-16T06:14:53.145Z,20.20
2022-08-16T06:17:21.789Z,20.20
2022-08-16T06:19:48.409Z,20.30
2022-08-16T06:22:37.525Z,20.30
2022-08-16T06:25:05.071Z,20.30
2022-08-16T06:27:39.572Z,20.40
2022-08-16T06:30:08.635Z,20.40
2022-08-16T06:32:39.253Z,20.30
2022-08-16T06:35:10.067Z,20.40
2022-08-16T06:37:37.707Z,20.50
2022-08-16T06:40:12.863Z,20.50
2022-08-16T06:42:49.212Z,20.60
2022-08-16T06:45:23.986Z,20.50
2022-08-16T06:47:56.560Z,20.50
2022-08-16T06:50:29.595Z,20.50
2022-08-16T06:52:59.809Z,20.60
2022-08-16T06:55:33.511Z,20.60
2022-08-16T06:58:01.873Z,20.60
2022-08-16T07:00:37.643Z,20.60
2022-08-16T07:03:26.973Z,20.70
2022-08-16T07:05:52.669Z,20.80
2022-08-16T07:08:20.873Z,20.80
2022-08-16T07:10:47.574Z,20.80
2022-08-16T07:13:19.849Z,20.80
2022-08-16T07:16:02.903Z,20.90
2022-08-16T07:18:29.668Z,20.90
2022-08-16T07:21:01.807Z,20.90
2022-08-16T07:23:36.967Z,21.00
2022-08-16T07:26:05.533Z,21.00
2022-08-16T07:28:32.842Z,21.00
2022-08-16T07:30:59.532Z,21.10
2022-08-16T07:33:52.409Z,21.20
2022-08-16T07:36:14.838Z,21.20
2022-08-16T07:38:48.976Z,21.20
2022-08-16T07:41:16.908Z,21.30
2022-08-16T07:43:43.767Z,21.30
2022-08-16T07:46:39.039Z,21.30
2022-08-16T07:49:02.430Z,21.40
2022-08-16T07:51:33.580Z,21.50
2022-08-16T07:54:09.993Z,21.50
2022-08-16T07:56:38.114Z,21.60
2022-08-16T07:59:06.194Z,21.70
2022-08-16T08:01:34.098Z,21.70
2022-08-16T08:04:02.563Z,21.80
2022-08-16T08:06:32.265Z,21.80
2022-08-16T08:09:00.174Z,21.90
2022-08-16T08:11:29.009Z,21.90
2022-08-16T08:13:57.438Z,21.90
2022-08-16T08:16:31.155Z,22.00
2022-08-16T08:19:02.426Z,22.00
2022-08-16T08:22:01.268Z,22.10
2022-08-16T08:24:19.744Z,22.10
2022-08-16T08:26:50.276Z,22.20
2022-08-16T08:29:22.491Z,22.30
2022-08-16T08:31:51.493Z,22.30
2022-08-16T08:34:18.667Z,22.40
2022-08-16T08:36:45.451Z,22.50
2022-08-16T08:39:12.560Z,22.60
2022-08-16T08:41:41.559Z,22.60
2022-08-16T08:44:27.818Z,22.60
2022-08-16T08:47:00.441Z,22.70
2022-08-16T08:49:54.915Z,22.70
2022-08-16T08:52:35.486Z,22.70
2022-08-16T08:55:10.410Z,22.80
2022-08-16T08:57:44.800Z,22.90
2022-08-16T09:00:14.186Z,22.90
2022-08-16T09:02:51.799Z,22.90
2022-08-16T09:05:22.370Z,23.00
2022-08-16T09:08:00.870Z,23.00
2022-08-16T09:10:30.842Z,23.10
2022-08-16T09:12:58.991Z,23.10
2022-08-16T09:15:32.614Z,23.10
2022-08-16T09:18:02.145Z,23.20
2022-08-16T09:20:59.155Z,23.30
2022-08-16T09:23:29.292Z,23.30
2022-08-16T09:25:56.071Z,23.40
2022-08-16T09:29:13.770Z,23.40
2022-08-16T09:31:11.018Z,23.40
2022-08-16T09:33:39.281Z,23.50
2022-08-16T09:36:06.597Z,23.50
2022-08-16T09:38:39.066Z,23.60
2022-08-16T09:41:14.553Z,23.70
2022-08-16T09:43:59.131Z,23.70
2022-08-16T09:46:33.426Z,23.80
2022-08-16T09:49:14.608Z,23.90
2022-08-16T09:51:42.737Z,23.80
2022-08-16T09:54:10.189Z,23.80
2022-08-16T09:56:38.351Z,23.80
2022-08-16T09:59:08.784Z,23.80
2022-08-16T10:01:37.365Z,23.90
2022-08-16T10:04:14.253Z,24.00
2022-08-16T10:06:54.102Z,24.10
2022-08-16T10:09:25.399Z,24.20
2022-08-16T10:11:52.083Z,24.20
2022-08-16T10:14:19.825Z,24.20
2022-08-16T10:16:48.952Z,24.30
2022-08-16T10:19:19.421Z,24.40
2022-08-16T10:21:46.321Z,24.40
2022-08-16T10:24:28.122Z,24.50
2022-08-16T10:27:16.173Z,24.50
2022-08-16T10:30:00.028Z,24.60
2022-08-16T10:32:30.427Z,24.70
2022-08-16T10:34:58.026Z,24.90
2022-08-16T10:37:32.570Z,25.00
2022-08-16T10:40:06.676Z,25.00
2022-08-16T10:42:53.664Z,25.10
2022-08-16T10:45:21.012Z,25.20
2022-08-16T10:47:47.857Z,25.20
2022-08-16T10:50:26.764Z,25.30
2022-08-16T10:52:56.857Z,25.30
2022-08-16T10:55:44.770Z,25.40
2022-08-16T10:58:17.066Z,25.60
2022-08-16T11:00:46.217Z,25.80
2022-08-16T11:06:03.261Z,25.90
2022-08-16T11:08:35.567Z,25.70
2022-08-16T11:11:13.004Z,25.60
2022-08-16T11:14:11.038Z,25.60
2022-08-16T11:19:20.505Z,25.70
2022-08-16T11:24:42.657Z,25.90
2022-08-16T11:27:23.541Z,25.90
2022-08-16T11:29:55.107Z,26.00
2022-08-16T11:32:31.309Z,26.00
2022-08-16T11:35:10.821Z,26.20
2022-08-16T11:40:32.403Z,26.50
2022-08-16T11:43:00.559Z,26.60
2022-08-16T11:45:27.505Z,26.60
2022-08-16T11:48:00.085Z,26.60
2022-08-16T11:50:27.035Z,26.70
2022-08-16T11:52:53.766Z,26.70
2022-08-16T11:55:20.642Z,26.70
2022-08-16T11:57:56.339Z,26.90
2022-08-16T12:00:49.713Z,27.10
2022-08-16T12:03:11.449Z,27.30
2022-08-16T12:05:39.553Z,27.50
2022-08-16T12:08:07.554Z,27.60
2022-08-16T12:10:36.755Z,27.60
2022-08-16T12:13:05.306Z,27.50
2022-08-16T12:15:32.775Z,27.50
2022-08-16T12:18:01.999Z,27.50
2022-08-16T12:20:33.059Z,27.50
2022-08-16T12:23:01.492Z,27.70
2022-08-16T12:25:30.422Z,28.00
2022-08-16T12:27:57.515Z,28.40
2022-08-16T12:30:31.281Z,28.80
2022-08-16T12:33:03.340Z,29.30
2022-08-16T12:35:31.258Z,29.60
2022-08-16T12:38:00.233Z,29.90
2022-08-16T12:40:36.989Z,30.10
2022-08-16T12:43:11.277Z,30.20
2022-08-16T12:45:41.399Z,30.10
2022-08-16T12:48:32.633Z,30.00
2022-08-16T12:50:57.499Z,29.90
2022-08-16T12:53:24.510Z,29.90
2022-08-16T12:55:52.067Z,29.70
2022-08-16T12:58:49.468Z,29.50
2022-08-16T13:01:08.981Z,29.40
2022-08-16T13:03:40.089Z,29.30
2022-08-16T13:06:08.055Z,29.10
2022-08-16T13:08:34.746Z,29.00
2022-08-16T13:11:04.014Z,28.80
2022-08-16T13:13:31.716Z,28.70
2022-08-16T13:16:05.097Z,28.60
2022-08-16T13:18:37.628Z,28.50
2022-08-16T13:21:07.907Z,28.40
2022-08-16T13:23:43.778Z,28.40
2022-08-16T13:26:11.565Z,28.40
2022-08-16T13:28:38.262Z,28.30
2022-08-16T13:31:05.029Z,28.30
2022-08-16T13:33:35.057Z,28.20
2022-08-16T13:36:03.823Z,28.30
2022-08-16T13:38:37.118Z,28.20
2022-08-16T13:41:08.479Z,28.20
2022-08-16T13:43:35.889Z,28.10
2022-08-16T13:46:04.521Z,28.00
2022-08-16T13:48:42.933Z,28.00
2022-08-16T13:51:16.639Z,27.80
2022-08-16T13:53:54.433Z,27.80
2022-08-16T13:56:34.246Z,27.90
2022-08-16T13:59:19.447Z,28.50
2022-08-16T14:01:55.228Z,28.90
2022-08-16T14:04:26.421Z,29.10
2022-08-16T14:06:53.932Z,29.20
2022-08-16T14:09:21.703Z,28.90
2022-08-16T14:11:49.545Z,29.20
2022-08-16T14:14:21.685Z,29.40
2022-08-16T14:17:00.215Z,29.90
2022-08-16T14:19:29.534Z,30.40
2022-08-16T14:22:14.006Z,30.80
2022-08-16T14:24:46.868Z,31.10
2022-08-16T14:27:15.596Z,31.10
2022-08-16T14:29:42.452Z,30.60
2022-08-16T14:32:13.171Z,30.20
2022-08-16T14:34:55.736Z,30.10
2022-08-16T14:37:23.078Z,29.70
2022-08-16T14:39:49.892Z,29.60
2022-08-16T14:42:23.139Z,29.50
2022-08-16T14:44:50.127Z,29.30
2022-08-16T14:47:17.813Z,29.20
2022-08-16T14:49:44.827Z,29.20
2022-08-16T14:52:17.794Z,29.40
2022-08-16T14:54:59.398Z,29.80
2022-08-16T14:57:26.435Z,30.30
2022-08-16T14:59:55.170Z,30.30
2022-08-16T15:02:34.033Z,30.30
2022-08-16T15:05:01.354Z,30.10
2022-08-16T15:07:33.092Z,29.80
2022-08-16T15:10:03.433Z,29.90
2022-08-16T15:12:33.489Z,30.30
2022-08-16T15:15:04.215Z,30.60
2022-08-16T15:17:39.387Z,30.60
2022-08-16T15:20:08.758Z,30.80
2022-08-16T15:22:41.409Z,31.00
2022-08-16T15:25:15.983Z,31.30
2022-08-16T15:27:44.093Z,31.50
2022-08-16T15:30:58.061Z,31.10
2022-08-16T15:33:12.707Z,30.60
2022-08-16T15:35:39.628Z,30.50
2022-08-16T15:38:08.933Z,30.40
2022-08-16T15:40:36.908Z,30.50
2022-08-16T15:43:23.626Z,30.50
2022-08-16T15:46:00.763Z,30.50
2022-08-16T15:48:30.498Z,30.90
2022-08-16T15:51:05.580Z,30.70
2022-08-16T15:53:41.793Z,30.40
2022-08-16T15:56:09.945Z,30.30
2022-08-16T15:58:38.926Z,30.10
2022-08-16T16:01:06.040Z,30.20
2022-08-16T16:03:34.722Z,30.10
2022-08-16T16:06:02.365Z,30.10
2022-08-16T16:08:29.753Z,30.20
2022-08-16T16:11:01.177Z,30.10
2022-08-16T16:13:30.594Z,29.90
2022-08-16T16:15:59.553Z,29.80
2022-08-16T16:18:26.467Z,29.70
2022-08-16T16:20:56.577Z,29.90
2022-08-16T16:23:28.071Z,29.90
2022-08-16T16:25:56.692Z,30.00
2022-08-16T16:29:06.130Z,29.90
2022-08-16T16:31:16.501Z,29.90
2022-08-16T16:33:46.268Z,29.70
2022-08-16T16:36:17.913Z,29.60
2022-08-16T16:38:44.857Z,29.70
2022-08-16T16:41:12.154Z,29.90
2022-08-16T16:43:41.125Z,30.10
2022-08-16T16:46:40.244Z,30.30
2022-08-16T16:48:55.709Z,30.30
2022-08-16T16:51:23.073Z,30.40
2022-08-16T16:53:55.912Z,30.50
2022-08-16T16:56:27.424Z,30.60
2022-08-16T16:58:57.049Z,30.50
2022-08-16T17:01:41.493Z,30.40
2022-08-16T17:04:22.582Z,30.40
2022-08-16T17:06:53.503Z,30.40
2022-08-16T17:09:23.857Z,30.50
2022-08-16T17:11:55.518Z,30.60
2022-08-16T17:14:27.591Z,30.50
2022-08-16T17:17:01.078Z,30.40
2022-08-16T17:19:31.855Z,30.10
2022-08-16T17:21:59.386Z,29.90
2022-08-16T17:24:39.338Z,29.70
2022-08-16T17:27:08.211Z,29.60
2022-08-16T17:29:35.373Z,29.40
2022-08-16T17:32:33.996Z,29.50
2022-08-16T17:35:00.599Z,29.50
2022-08-16T17:37:42.342Z,29.40
2022-08-16T17:40:25.333Z,29.20
2022-08-16T17:43:01.004Z,29.30
2022-08-16T17:45:28.269Z,29.20
2022-08-16T17:47:55.120Z,29.10
2022-08-16T17:50:21.860Z,29.00
2022-08-16T17:52:53.084Z,28.90
2022-08-16T17:55:42.110Z,28.80
2022-08-16T17:58:22.821Z,28.80
2022-08-16T18:00:52.860Z,28.70
2022-08-16T18:04:08.562Z,28.60
2022-08-16T18:06:11.744Z,28.40
2022-08-16T18:08:39.165Z,28.20
2022-08-16T18:11:07.945Z,28.20
2022-08-16T18:13:34.776Z,28.10
2022-08-16T18:16:01.944Z,28.10
2022-08-16T18:18:28.663Z,28.00
2022-08-16T18:20:55.362Z,27.90
2022-08-16T18:23:26.801Z,27.80
2022-08-16T18:25:57.344Z,27.70
2022-08-16T18:28:26.415Z,27.60
2022-08-16T18:31:00.815Z,27.60
2022-08-16T18:33:28.331Z,27.50
2022-08-16T18:35:57.850Z,27.40
2022-08-16T18:38:25.195Z,27.30
2022-08-16T18:40:52.157Z,27.30
2022-08-16T18:43:21.090Z,27.10
2022-08-16T18:46:09.879Z,27.00
2022-08-16T18:48:38.992Z,26.90
2022-08-16T18:51:10.250Z,26.90
2022-08-16T18:53:39.891Z,26.80
2022-08-16T18:56:07.560Z,26.80
2022-08-16T18:58:34.370Z,26.80
2022-08-16T19:01:01.299Z,26.70
2022-08-16T19:03:31.149Z,26.70
2022-08-16T19:06:03.384Z,26.60
2022-08-16T19:08:31.254Z,26.50
2022-08-16T19:10:57.952Z,26.50
2022-08-16T19:13:27.666Z,26.30
2022-08-16T19:15:58.764Z,26.20
2022-08-16T19:18:27.244Z,26.20
2022-08-16T19:20:55.256Z,26.10
2022-08-16T19:23:24.472Z,26.00
2022-08-16T19:25:57.941Z,26.00
2022-08-16T19:28:51.911Z,26.00
2022-08-16T19:31:26.176Z,25.90
2022-08-16T19:33:54.975Z,25.90
2022-08-16T19:36:31.662Z,25.80
2022-08-16T19:39:04.196Z,25.80
2022-08-16T19:41:33.369Z,25.80
2022-08-16T19:44:00.068Z,25.70
2022-08-16T19:46:26.744Z,25.70
2022-08-16T19:48:53.526Z,25.60
2022-08-16T19:51:20.233Z,25.60
2022-08-16T19:53:46.960Z,25.50
2022-08-16T19:56:13.720Z,25.50
2022-08-16T19:58:56.147Z,25.40
2022-08-16T20:01:27.073Z,25.30
2022-08-16T20:03:54.184Z,25.30
2022-08-16T20:06:37.822Z,25.30
2022-08-16T20:09:05.912Z,25.20
2022-08-16T20:11:33.011Z,25.10
2022-08-16T20:13:59.690Z,25.00
2022-08-16T20:16:26.401Z,25.10
2022-08-16T20:18:53.082Z,25.10
2022-08-16T20:21:19.831Z,25.00
2022-08-16T20:23:46.630Z,24.90
2022-08-16T20:26:13.525Z,24.90
2022-08-16T20:28:53.858Z,24.80
2022-08-16T20:31:25.418Z,24.90
2022-08-16T20:33:53.183Z,24.90
2022-08-16T20:36:19.972Z,24.90
2022-08-16T20:38:47.143Z,24.80
2022-08-16T20:41:15.371Z,24.80
2022-08-16T20:43:42.516Z,24.70
2022-08-16T20:46:09.867Z,24.70
2022-08-16T20:48:36.951Z,24.60
2022-08-16T20:51:05.156Z,24.50
2022-08-16T20:53:31.816Z,24.50
2022-08-16T20:55:58.475Z,24.40
2022-08-16T20:58:25.145Z,24.40
2022-08-16T21:00:51.905Z,24.30
2022-08-16T21:03:18.872Z,24.30
2022-08-16T21:05:45.569Z,24.20
2022-08-16T21:08:51.067Z,24.30
2022-08-16T21:11:02.235Z,24.30
2022-08-16T21:13:28.981Z,24.40
2022-08-16T21:15:55.689Z,24.40
2022-08-16T21:18:22.552Z,24.30
2022-08-16T21:20:49.239Z,24.30
2022-08-16T21:23:16.018Z,24.30
2022-08-16T21:25:58.332Z,24.20
2022-08-16T21:28:39.106Z,24.20
2022-08-16T21:31:09.839Z,24.20
2022-08-16T21:33:36.539Z,24.20
2022-08-16T21:36:03.740Z,24.10
2022-08-16T21:38:31.109Z,24.00
2022-08-16T21:41:03.276Z,24.00
2022-08-16T21:43:30.856Z,24.00
2022-08-16T21:45:57.578Z,24.00
2022-08-16T21:48:33.824Z,24.00
2022-08-16T21:51:11.418Z,24.00
2022-08-16T21:53:38.351Z,23.90
2022-08-16T21:56:06.257Z,23.90
2022-08-16T21:58:32.972Z,23.90
2022-08-16T22:01:00.969Z,23.80
2022-08-16T22:03:28.430Z,23.80
2022-08-16T22:06:12.118Z,23.80
2022-08-16T22:08:50.104Z,23.70
2022-08-16T22:11:23.634Z,23.60
2022-08-16T22:13:58.666Z,23.70
2022-08-16T22:16:28.532Z,23.60
2022-08-16T22:18:55.201Z,23.70
2022-08-16T22:21:21.910Z,23.70
2022-08-16T22:23:56.570Z,23.60
2022-08-16T22:26:32.300Z,23.60
2022-08-16T22:29:05.718Z,23.60
2022-08-16T22:31:32.717Z,23.60
2022-08-16T22:33:59.894Z,23.60
2022-08-16T22:36:28.114Z,23.60
2022-08-16T22:39:00.007Z,23.50
2022-08-16T22:41:28.391Z,23.50
2022-08-16T22:43:55.236Z,23.30
2022-08-16T22:46:21.987Z,23.30
2022-08-16T22:48:48.861Z,23.20
2022-08-16T22:51:16.253Z,23.20
2022-08-16T22:53:42.967Z,23.20
2022-08-16T22:56:09.742Z,23.20
2022-08-16T22:58:37.344Z,23.30
2022-08-16T23:01:06.840Z,23.30
2022-08-16T23:03:33.711Z,23.30
2022-08-16T23:06:00.798Z,23.20
2022-08-16T23:08:32.211Z,23.30
2022-08-16T23:11:08.558Z,23.20
2022-08-16T23:13:35.312Z,23.20
2022-08-16T23:16:10.692Z,23.10
2022-08-16T23:18:39.538Z,23.10
2022-08-16T23:21:09.492Z,23.10
2022-08-16T23:23:37.023Z,23.10
2022-08-16T23:26:45.141Z,23.10
2022-08-16T23:28:51.546Z,23.10
2022-08-16T23:31:18.407Z,23.10
2022-08-16T23:33:45.281Z,23.10
2022-08-16T23:36:12.287Z,23.10
2022-08-16T23:38:39.492Z,23.00
2022-08-16T23:41:09.195Z,22.90
2022-08-16T23:43:38.948Z,22.90
2022-08-16T23:46:05.947Z,22.90
2022-08-16T23:49:56.239Z,22.80
2022-08-16T23:51:22.500Z,22.80
2022-08-16T23:53:49.161Z,22.80
2022-08-16T23:56:18.771Z,22.70
2022-08-16T23:58:48.589Z,22.80
